Main page
METAR-TAF:

METAR-TAF

Airports :

Portsmouth International Airport at Pease

Portsmouth, New Hampshire, United States

latitude: 43-05N, longitude: 070-49W, elevation: 102 ft

Current weather observation

The report was made 1 hour and 1 minutes ago, at 15:56 UTC
Wind 12 mph from the West/Northwest
Temperature 41°F
Humidity 60%
Pressure 29.54 in. Hg
Visibility: 10 miles
Broken clouds at a height of 25000 ft

METAR: KPSM 051556Z 29010KT 10SM BKN250 05/M02 A2954 RMK AO2A SLP007 T00461021

Time: 11:57 (16:57 UTC)

Forecast

The report was made 5 hours and 37 minutes ago, at 11:20 UTC
Forecast valid from 05 at 12 UTC to 06 at 12 UTC
Wind 7 mph from the West
Visibility: 6 miles
Broken clouds at a height of 5000 ft
From 05 at 1700 UTC
Wind 12 mph from the West/Northwest with gusts up to 20 mph
Visibility: 6 miles
Scattered clouds at a height of 25000 ft

TAF: KPSM 051120Z 0512/0612 28006KT P6SM BKN050 FM051700 29010G17KT P6SM SCT250

Weather observations and forecasts of more than 4000 airports (METAR and TAF reports).

The available stations are represented by yellow and red dots on the map.

Hover mouse over dot to see the name of the station.

Then click to see weather observations and forecasts.

To change the map : click on the green buttons with a black cross to zoom in, on the green button with a dash to zoom out, or on the green arrows for adjacent maps.


METAR-TAF: